Decoded Metar for K2J9 ( in ) (IATA:) | Meteo·Mobile Aviation Weather
aviador You're here:

K2J9 Decoded Metar

in
Report Time2018-11-19 21:15:00
UTC Time2018-11-19 21:34:51
Flight Rules vfr VFR
WindCalm
Visibility9999 m
Phenomena:N/A
Clouds:N/A
Expected CloudBase > 3,600 ft AGL from Temp-Dew spread
CeilingNone
Temp20°C
Dew Point11°C (56% RH)
QNH1019 hPa
Raw Report
METAR K2J9 192115Z AUTO 00000KT 9SM CLR 20/11 A3010 RMK AO2=

Extra information for K2J9:More info

Social comments